Time;durP1;ratioP1;P1;durP2;ratioP2;P2;SDS_P1;SDS_P2;PMS_P1;PMS_P2;Temp;Humidity;BMP_temperature;BMP_pressure;BME280_temperature;BME280_humidity;BME280_pressure;Samples;Min_cycle;Max_cycle;Signal;HPM_P1;HPM_P2
2023/04/06 00:01:52;;;;;;;;;;;;;;;1.49;57.47;96650.34;5015471;28;20003;-72
2023/04/06 00:04:17;;;;;;;;;;;;;;;1.45;57.13;96654.19;5034260;28;20318;-71
2023/04/06 00:06:43;;;;;;;;;;;;;;;1.40;58.06;96649.47;5034033;28;19986;-71
2023/04/06 00:09:09;;;;;;;;;;;;;;;1.36;57.98;96650.75;5035309;28;20025;-71
2023/04/06 00:11:35;;;;;;;;;;;;;;;1.34;58.01;96651.88;5034096;28;19971;-72
2023/04/06 00:14:01;;;;;;;;;;;;;;;1.33;57.72;96655.44;5034223;28;20007;-71
2023/04/06 00:16:27;;;;;;;;;;;;;;;1.31;57.61;96647.03;5034354;28;19946;-75
2023/04/06 00:18:53;;;;;;;;;;;;;;;1.26;57.70;96650.09;5034020;28;19993;-75
2023/04/06 00:21:19;;;;;;;;;;;;;;;1.23;58.52;96647.00;5033098;28;20400;-74
2023/04/06 00:23:45;;;;;;;;;;;;;;;1.19;57.97;96646.47;5016014;28;19969;-75
2023/04/06 00:26:11;;;;;;;;;;;;;;;1.18;58.28;96647.44;5033898;28;19939;-74
2023/04/06 00:28:37;;;;;;;;;;;;;;;1.15;58.21;96637.41;5033840;28;19936;-74
2023/04/06 00:31:03;;;;;;;;;;;;;;;1.13;59.07;96639.34;5033855;28;19950;-74
2023/04/06 00:33:29;;;;;;;;;;;;;;;1.09;58.74;96638.03;5034325;28;19994;-81
2023/04/06 00:35:55;;;;;;;;;;;;;;;1.08;59.90;96639.00;5033667;28;19963;-71
2023/04/06 00:38:21;;;;;;;;;;;;;;;1.05;59.38;96640.13;5034163;28;19995;-72
2023/04/06 00:40:47;;;;;;;;;;;;;;;1.04;59.69;96637.69;5016398;28;19947;-72
2023/04/06 00:43:13;;;;;;;;;;;;;;;1.00;59.52;96637.97;5015719;28;20365;-72
2023/04/06 00:45:40;;;;;;;;;;;;;;;0.99;59.75;96636.38;5033359;28;19950;-72
2023/04/06 00:48:06;;;;;;;;;;;;;;;0.95;59.86;96636.84;5015894;28;19942;-72
2023/04/06 00:50:32;;;;;;;;;;;;;;;0.92;59.77;96632.75;5034121;28;19952;-75
2023/04/06 00:52:59;;;;;;;;;;;;;;;0.90;59.66;96628.72;5033850;28;19939;-71
2023/04/06 00:55:28;;;;;;;;;;;;;;;0.88;59.90;96636.63;5015767;28;19948;-75
2023/04/06 00:57:56;;;;;;;;;;;;;;;0.85;60.44;96628.38;5033494;28;19955;-74
2023/04/06 01:00:22;;;;;;;;;;;;;;;0.82;60.12;96637.25;5033404;28;20324;-74
2023/04/06 01:02:48;;;;;;;;;;;;;;;0.80;60.13;96624.47;5033418;28;19939;-74
2023/04/06 01:05:14;;;;;;;;;;;;;;;0.78;60.05;96626.41;5033928;28;19955;-74
2023/04/06 01:07:40;;;;;;;;;;;;;;;0.77;60.36;96626.56;5033386;28;19996;-74
2023/04/06 01:10:06;;;;;;;;;;;;;;;0.73;61.21;96625.22;5033571;28;19939;-74
2023/04/06 01:12:32;;;;;;;;;;;;;;;0.70;60.90;96617.81;5033198;28;20404;-75
2023/04/06 01:14:59;;;;;;;;;;;;;;;0.67;60.52;96623.25;5034265;28;19984;-75
2023/04/06 01:17:24;;;;;;;;;;;;;;;0.64;60.81;96623.56;5034139;28;19952;-75
2023/04/06 01:19:53;;;;;;;;;;;;;;;0.62;60.56;96621.13;5033011;28;19987;-74
2023/04/06 01:22:19;;;;;;;;;;;;;;;0.63;61.53;96622.78;5033312;28;19942;-75
2023/04/06 01:24:45;;;;;;;;;;;;;;;0.60;60.93;96615.31;5033768;28;19958;-75
2023/04/06 01:27:12;;;;;;;;;;;;;;;0.56;60.93;96619.97;5033081;28;19945;-72
2023/04/06 01:29:40;;;;;;;;;;;;;;;0.52;60.91;96615.25;5033085;28;19930;-75
2023/04/06 01:32:07;;;;;;;;;;;;;;;0.47;61.12;96613.13;5032995;28;20386;-76
2023/04/06 01:34:33;;;;;;;;;;;;;;;0.47;61.57;96617.50;5036930;28;19933;-74
2023/04/06 01:36:59;;;;;;;;;;;;;;;0.44;61.83;96616.00;5036707;28;20470;-74
2023/04/06 01:39:25;;;;;;;;;;;;;;;0.43;61.64;96611.81;5037479;28;19948;-74
2023/04/06 01:41:51;;;;;;;;;;;;;;;0.41;61.65;96613.72;5036887;28;19942;-73
2023/04/06 01:44:20;;;;;;;;;;;;;;;0.40;61.93;96614.69;5036975;28;19955;-73
2023/04/06 01:46:46;;;;;;;;;;;;;;;0.37;61.80;96617.56;5036847;28;19946;-82
2023/04/06 01:49:12;;;;;;;;;;;;;;;0.37;61.81;96617.56;5036929;28;20033;-71
2023/04/06 01:51:38;;;;;;;;;;;;;;;0.37;61.40;96609.81;5036739;28;19943;-69
2023/04/06 01:54:04;;;;;;;;;;;;;;;0.36;62.65;96621.91;5036541;28;19960;-70
2023/04/06 01:56:30;;;;;;;;;;;;;;;0.35;62.56;96612.53;5036338;28;20395;-69
2023/04/06 01:58:56;;;;;;;;;;;;;;;0.32;62.83;96606.91;5037183;28;19946;-69
2023/04/06 02:01:22;;;;;;;;;;;;;;;0.29;62.97;96609.75;5036350;28;20391;-71
2023/04/06 02:03:48;;;;;;;;;;;;;;;0.24;63.27;96604.25;5036550;28;20002;-82
2023/04/06 02:06:14;;;;;;;;;;;;;;;0.24;63.56;96599.09;5036834;28;19938;-71
2023/04/06 02:08:40;;;;;;;;;;;;;;;0.22;63.23;96598.44;5036164;28;20386;-71
2023/04/06 02:11:06;;;;;;;;;;;;;;;0.21;63.30;96602.78;5036167;28;19976;-72
2023/04/06 02:13:32;;;;;;;;;;;;;;;0.18;63.02;96601.28;5036042;28;19971;-72
2023/04/06 02:15:58;;;;;;;;;;;;;;;0.18;63.45;96603.88;5036158;28;19945;-71
2023/04/06 02:18:23;;;;;;;;;;;;;;;0.16;63.53;96599.81;5036800;28;20370;-71
2023/04/06 02:20:49;;;;;;;;;;;;;;;0.15;63.82;96604.19;5035970;28;20740;-72
2023/04/06 02:23:15;;;;;;;;;;;;;;;0.13;63.70;96600.94;5036390;28;19936;-73
2023/04/06 02:25:41;;;;;;;;;;;;;;;0.11;64.37;96600.28;5036009;28;19960;-74
2023/04/06 02:28:07;;;;;;;;;;;;;;;0.09;63.82;96606.53;5018160;28;19983;-75
2023/04/06 02:30:34;;;;;;;;;;;;;;;0.05;64.10;96598.28;5035588;28;20000;-75
2023/04/06 02:33:00;;;;;;;;;;;;;;;0.02;63.96;96596.00;5035792;28;19944;-75
2023/04/06 02:35:27;;;;;;;;;;;;;;;-0.01;64.50;96601.44;5035938;28;19942;-76
2023/04/06 02:37:53;;;;;;;;;;;;;;;-0.05;64.71;96597.56;5035889;28;19958;-74
2023/04/06 02:40:19;;;;;;;;;;;;;;;-0.07;64.80;96602.84;5035671;28;20365;-72
2023/04/06 02:42:45;;;;;;;;;;;;;;;-0.09;65.14;96593.66;5035867;28;19945;-71
2023/04/06 02:45:11;;;;;;;;;;;;;;;-0.10;65.20;96600.56;5034616;28;20003;-71
2023/04/06 02:47:37;;;;;;;;;;;;;;;-0.11;64.30;96600.72;5035485;28;19941;-71
2023/04/06 02:50:03;;;;;;;;;;;;;;;-0.12;65.16;96596.53;5002100;28;19939;-71
2023/04/06 02:52:29;;;;;;;;;;;;;;;-0.14;65.14;96591.50;5035830;28;19946;-72
2023/04/06 02:54:55;;;;;;;;;;;;;;;-0.17;65.60;96599.53;5035320;28;19951;-71
2023/04/06 02:57:21;;;;;;;;;;;;;;;-0.19;64.99;96598.88;5035313;28;19951;-70
2023/04/06 02:59:47;;;;;;;;;;;;;;;-0.22;65.53;96596.59;5035797;28;19943;-75
2023/04/06 03:02:12;;;;;;;;;;;;;;;-0.23;66.07;96594.97;5035268;28;19944;-71
2023/04/06 03:04:38;;;;;;;;;;;;;;;-0.25;65.23;96591.75;5018169;28;20035;-71
2023/04/06 03:07:04;;;;;;;;;;;;;;;-0.26;65.69;96590.91;5017565;28;19950;-71
2023/04/06 03:09:30;;;;;;;;;;;;;;;-0.27;66.42;96596.22;5035311;28;20246;-71
2023/04/06 03:11:56;;;;;;;;;;;;;;;-0.30;65.42;96588.78;5036111;28;19943;-71
2023/04/06 03:14:22;;;;;;;;;;;;;;;-0.34;66.21;96595.97;5035478;28;19993;-70
2023/04/06 03:16:48;;;;;;;;;;;;;;;-0.36;66.46;96597.09;5035225;28;20333;-71
2023/04/06 03:19:15;;;;;;;;;;;;;;;-0.40;66.88;96596.56;5036152;28;20292;-74
2023/04/06 03:21:41;;;;;;;;;;;;;;;-0.43;67.23;96595.09;5035379;28;19951;-71
2023/04/06 03:24:07;;;;;;;;;;;;;;;-0.44;67.21;96595.25;5035109;28;20309;-71
2023/04/06 03:26:33;;;;;;;;;;;;;;;-0.45;66.60;96594.41;5017313;28;19943;-71
2023/04/06 03:28:59;;;;;;;;;;;;;;;-0.46;66.37;96597.97;5035096;28;19949;-71
2023/04/06 03:31:25;;;;;;;;;;;;;;;-0.45;66.27;96597.00;5034978;28;20418;-70
2023/04/06 03:33:51;;;;;;;;;;;;;;;-0.47;66.67;96598.91;5034951;28;19955;-71
2023/04/06 03:36:17;;;;;;;;;;;;;;;-0.47;67.22;96601.50;5034860;28;20424;-75
2023/04/06 03:38:43;;;;;;;;;;;;;;;-0.48;66.59;96599.06;5035395;28;19967;-71
2023/04/06 03:41:09;;;;;;;;;;;;;;;-0.51;67.30;96597.56;5035561;28;19981;-75
2023/04/06 03:43:35;;;;;;;;;;;;;;;-0.54;67.63;96608.19;5035225;28;20310;-75
2023/04/06 03:46:01;;;;;;;;;;;;;;;-0.57;67.37;96603.31;5034626;28;19983;-75
2023/04/06 03:48:27;;;;;;;;;;;;;;;-0.57;66.95;96602.50;5034642;28;20334;-76
2023/04/06 03:50:52;;;;;;;;;;;;;;;-0.58;67.30;96606.03;5034922;28;19995;-75
2023/04/06 03:53:19;;;;;;;;;;;;;;;-0.59;67.29;96601.84;5034536;28;19952;-74
2023/04/06 03:55:44;;;;;;;;;;;;;;;-0.63;67.22;96612.44;5035239;28;19936;-70
2023/04/06 03:58:10;;;;;;;;;;;;;;;-0.65;67.57;96611.78;5034511;28;19999;-75
2023/04/06 04:00:36;;;;;;;;;;;;;;;-0.67;67.49;96605.94;5034461;28;19940;-75
2023/04/06 04:03:02;;;;;;;;;;;;;;;-0.69;67.18;96613.00;5034414;28;19938;-75
2023/04/06 04:05:28;;;;;;;;;;;;;;;-0.68;67.14;96608.66;5034300;28;20503;-75
2023/04/06 04:07:55;;;;;;;;;;;;;;;-0.68;66.91;96613.81;5035204;28;19947;-75
2023/04/06 04:10:20;;;;;;;;;;;;;;;-0.70;67.72;96619.09;5034355;28;19944;-75
2023/04/06 04:12:46;;;;;;;;;;;;;;;-0.72;67.45;96621.00;5034123;28;19995;-71
2023/04/06 04:15:12;;;;;;;;;;;;;;;-0.74;68.12;96616.97;5034263;28;20000;-71
2023/04/06 04:17:38;;;;;;;;;;;;;;;-0.77;67.71;96623.22;5017211;28;19950;-71
2023/04/06 04:20:04;;;;;;;;;;;;;;;-0.78;67.86;96610.47;5035271;28;19943;-71
2023/04/06 04:22:30;;;;;;;;;;;;;;;-0.82;67.74;96609.94;5034084;28;19944;-72
2023/04/06 04:24:56;;;;;;;;;;;;;;;-0.83;68.02;96613.47;5035028;28;19956;-72
2023/04/06 04:27:22;;;;;;;;;;;;;;;-0.83;67.59;96611.72;5034310;28;20372;-71
2023/04/06 04:29:48;;;;;;;;;;;;;;;-0.83;67.13;96616.06;5034035;28;19945;-72
2023/04/06 04:32:14;;;;;;;;;;;;;;;-0.84;67.61;96617.00;5034838;28;19941;-75
2023/04/06 04:34:40;;;;;;;;;;;;;;;-0.84;68.51;96624.72;5016150;28;19943;-81
2023/04/06 04:37:06;;;;;;;;;;;;;;;-0.86;68.57;96622.31;5034431;28;19959;-81
2023/04/06 04:39:32;;;;;;;;;;;;;;;-0.87;68.95;96627.59;5034108;28;19934;-82
2023/04/06 04:41:58;;;;;;;;;;;;;;;-0.90;68.87;96626.13;5033921;28;19949;-81
2023/04/06 04:44:24;;;;;;;;;;;;;;;-0.91;68.66;96626.25;5033949;28;19960;-80
2023/04/06 04:46:50;;;;;;;;;;;;;;;-0.94;69.25;96623.97;5034316;28;20032;-81
2023/04/06 04:49:16;;;;;;;;;;;;;;;-0.94;68.62;96634.25;5016095;28;19943;-71
2023/04/06 04:51:41;;;;;;;;;;;;;;;-0.94;68.24;96626.53;5034272;28;19942;-75
2023/04/06 04:54:07;;;;;;;;;;;;;;;-0.95;68.85;96627.47;5033729;28;19948;-82
2023/04/06 04:56:33;;;;;;;;;;;;;;;-0.94;68.54;96631.69;5016116;28;19936;-81
2023/04/06 04:58:59;;;;;;;;;;;;;;;-0.93;68.67;96635.88;5034465;28;19949;-81
2023/04/06 05:01:25;;;;;;;;;;;;;;;-0.93;68.39;96635.88;5033748;28;19945;-80
2023/04/06 05:03:51;;;;;;;;;;;;;;;-0.95;68.36;96630.84;5034172;28;20042;-81
2023/04/06 05:06:18;;;;;;;;;;;;;;;-0.96;69.42;96633.59;5033592;28;20471;-81
2023/04/06 05:08:44;;;;;;;;;;;;;;;-0.96;68.82;96641.31;5036262;28;20386;-71
2023/04/06 05:11:10;;;;;;;;;;;;;;;-0.95;69.35;96635.19;5037708;28;19999;-75
2023/04/06 05:13:36;;;;;;;;;;;;;;;-0.94;68.63;96637.63;5037820;28;20349;-75
2023/04/06 05:16:02;;;;;;;;;;;;;;;-0.91;69.28;96633.97;5037640;28;20051;-75
2023/04/06 05:18:28;;;;;;;;;;;;;;;-0.89;69.58;96643.16;5037628;28;19943;-75
2023/04/06 05:20:54;;;;;;;;;;;;;;;-0.86;69.15;96642.91;5037327;28;19942;-75
2023/04/06 05:23:20;;;;;;;;;;;;;;;-0.83;69.26;96649.53;5037366;28;19935;-75
2023/04/06 05:25:46;;;;;;;;;;;;;;;-0.77;68.83;96645.56;5037488;28;20317;-74
2023/04/06 05:28:14;;;;;;;;;;;;;;;-0.54;69.41;96649.41;5037620;28;19942;-81
2023/04/06 05:30:40;;;;;;;;;;;;;;;-0.02;68.59;96641.91;5037271;28;19945;-71
2023/04/06 05:33:06;;;;;;;;;;;;;;;0.60;67.08;96635.97;5037192;28;19962;-70
2023/04/06 05:35:32;;;;;;;;;;;;;;;1.21;65.39;96629.84;5037100;28;20404;-72
2023/04/06 05:37:57;;;;;;;;;;;;;;;1.78;64.35;96625.84;5037092;28;20002;-71
2023/04/06 05:40:23;;;;;;;;;;;;;;;2.33;62.55;96614.94;5037076;28;20035;-71
2023/04/06 05:42:50;;;;;;;;;;;;;;;2.82;60.97;96622.66;5036927;28;20375;-71
2023/04/06 05:45:18;;;;;;;;;;;;;;;3.28;59.82;96614.28;5037072;28;19963;-76
2023/04/06 05:47:45;;;;;;;;;;;;;;;3.72;58.36;96606.00;5037113;28;19939;-75
2023/04/06 05:50:11;;;;;;;;;;;;;;;4.13;57.09;96623.09;5036857;28;19947;-75
2023/04/06 05:52:37;;;;;;;;;;;;;;;4.43;55.39;96617.03;5037366;28;19940;-76
2023/04/06 05:55:03;;;;;;;;;;;;;;;4.65;54.41;96617.16;5037399;28;19939;-75
2023/04/06 05:57:29;;;;;;;;;;;;;;;4.93;53.76;96611.38;5036764;28;19947;-76
2023/04/06 05:59:55;;;;;;;;;;;;;;;5.19;53.27;96616.16;5036787;28;19973;-75
2023/04/06 06:02:21;;;;;;;;;;;;;;;5.41;53.03;96625.63;5036716;28;19947;-75
2023/04/06 06:04:47;;;;;;;;;;;;;;;5.56;51.74;96623.03;5036632;28;19967;-72
2023/04/06 06:07:17;;;;;;;;;;;;;;;5.48;50.95;96626.56;5018932;28;20027;-71
2023/04/06 06:09:43;;;;;;;;;;;;;;;5.46;50.90;96628.53;5036462;28;19937;-71
2023/04/06 06:12:08;;;;;;;;;;;;;;;5.44;51.19;96627.91;5037031;28;20034;-72
2023/04/06 06:14:34;;;;;;;;;;;;;;;5.52;51.15;96628.78;5036465;28;19975;-72
2023/04/06 06:17:00;;;;;;;;;;;;;;;5.59;50.95;96633.09;5036433;28;19990;-71
2023/04/06 06:19:26;;;;;;;;;;;;;;;5.64;50.77;96633.34;5035230;28;19985;-71
2023/04/06 06:21:52;;;;;;;;;;;;;;;5.65;50.36;96632.34;5036282;28;20394;-72
2023/04/06 06:24:18;;;;;;;;;;;;;;;5.70;50.50;96632.59;5036331;28;19947;-76
2023/04/06 06:26:44;;;;;;;;;;;;;;;5.94;50.36;96629.84;5035059;28;19952;-72
2023/04/06 06:29:10;;;;;;;;;;;;;;;6.07;49.87;96632.66;5036166;28;19950;-72
2023/04/06 06:31:36;;;;;;;;;;;;;;;6.06;49.71;96633.63;5036150;28;19941;-72
2023/04/06 06:34:02;;;;;;;;;;;;;;;6.05;49.80;96635.44;5018525;28;19944;-72
2023/04/06 06:36:29;;;;;;;;;;;;;;;6.17;49.58;96638.34;5036252;28;20009;-71
2023/04/06 06:38:54;;;;;;;;;;;;;;;6.30;49.77;96629.88;5035979;28;20305;-72
2023/04/06 06:41:20;;;;;;;;;;;;;;;6.48;49.17;96638.03;5035993;28;19946;-76
2023/04/06 06:43:46;;;;;;;;;;;;;;;6.52;48.75;96638.47;5035948;28;19982;-76
2023/04/06 06:46:12;;;;;;;;;;;;;;;6.53;49.22;96642.72;5035740;28;20420;-76
2023/04/06 06:48:38;;;;;;;;;;;;;;;6.42;49.02;96646.59;5018733;28;19949;-76
2023/04/06 06:51:04;;;;;;;;;;;;;;;6.38;49.08;96647.16;5035748;28;19986;-76
2023/04/06 06:53:30;;;;;;;;;;;;;;;6.34;48.60;96649.34;5035965;28;19988;-77
2023/04/06 06:55:55;;;;;;;;;;;;;;;6.14;49.67;96646.53;5035590;28;20040;-76
2023/04/06 06:58:21;;;;;;;;;;;;;;;6.15;49.27;96653.34;5035873;28;19964;-76
2023/04/06 07:00:47;;;;;;;;;;;;;;;5.98;49.43;96651.97;5036170;28;20352;-78
2023/04/06 07:03:13;;;;;;;;;;;;;;;5.84;49.58;96653.59;5034898;28;20035;-79
2023/04/06 07:05:45;;;;;;;;;;;;;;;5.87;49.57;96646.22;5035425;28;20054;-79
2023/04/06 07:08:10;;;;;;;;;;;;;;;5.82;49.69;96642.56;5036366;28;20006;-79
2023/04/06 07:10:36;;;;;;;;;;;;;;;5.75;49.90;96652.88;5036210;28;19931;-79
2023/04/06 07:13:03;;;;;;;;;;;;;;;5.62;49.46;96650.91;5017426;28;20000;-79
2023/04/06 07:15:29;;;;;;;;;;;;;;;5.57;50.30;96650.66;5017793;28;19948;-79
2023/04/06 07:17:55;;;;;;;;;;;;;;;5.65;50.31;96649.78;5036422;28;20375;-71
2023/04/06 07:20:21;;;;;;;;;;;;;;;5.74;49.56;96648.66;5035291;28;19951;-72
2023/04/06 07:22:48;;;;;;;;;;;;;;;5.92;49.88;96650.84;5035984;28;20033;-72
2023/04/06 07:25:14;;;;;;;;;;;;;;;6.00;49.07;96650.00;5018120;28;19961;-71
2023/04/06 07:27:40;;;;;;;;;;;;;;;6.08;49.29;96647.28;5018152;28;20442;-72
2023/04/06 07:30:06;;;;;;;;;;;;;;;5.99;50.17;96648.38;5034901;28;19946;-72
2023/04/06 07:32:34;;;;;;;;;;;;;;;6.07;49.20;96653.47;5017236;28;20424;-72
2023/04/06 07:35:00;;;;;;;;;;;;;;;6.16;49.49;96649.75;5034984;28;19967;-72
2023/04/06 07:37:27;;;;;;;;;;;;;;;6.37;50.06;96653.38;5017820;28;20424;-76
2023/04/06 07:39:53;;;;;;;;;;;;;;;6.60;48.98;96646.16;5034936;28;19964;-75
2023/04/06 07:42:18;;;;;;;;;;;;;;;6.83;48.93;96645.16;5034872;28;20405;-75
2023/04/06 07:44:44;;;;;;;;;;;;;;;6.94;48.39;96647.22;5035418;28;19942;-75
2023/04/06 07:47:10;;;;;;;;;;;;;;;6.95;47.58;96637.59;5034673;28;19942;-75
2023/04/06 07:49:36;;;;;;;;;;;;;;;7.05;48.17;96651.91;5035459;28;19941;-76
2023/04/06 07:52:03;;;;;;;;;;;;;;;7.16;47.61;96648.00;5035175;28;20446;-75
2023/04/06 07:54:28;;;;;;;;;;;;;;;7.13;48.11;96644.97;5034673;28;19943;-74
2023/04/06 07:56:54;;;;;;;;;;;;;;;7.23;47.69;96651.44;5034580;28;19981;-76
2023/04/06 07:59:20;;;;;;;;;;;;;;;7.35;47.08;96650.91;5034451;28;19949;-76
2023/04/06 08:01:46;;;;;;;;;;;;;;;7.41;48.16;96652.75;5034583;28;19964;-76
2023/04/06 08:04:12;;;;;;;;;;;;;;;7.37;48.11;96643.69;5034504;28;19969;-77
2023/04/06 08:06:38;;;;;;;;;;;;;;;7.42;48.05;96642.13;5034974;28;19957;-77
2023/04/06 08:09:04;;;;;;;;;;;;;;;7.75;48.33;96649.31;5034365;28;20389;-77
2023/04/06 08:11:30;;;;;;;;;;;;;;;8.09;46.53;96640.56;5035063;28;19936;-76
2023/04/06 08:13:56;;;;;;;;;;;;;;;8.17;45.32;96639.59;5034039;28;19975;-79
2023/04/06 08:16:22;;;;;;;;;;;;;;;8.16;46.29;96640.59;5034148;28;19954;-76
2023/04/06 08:18:48;;;;;;;;;;;;;;;8.08;46.71;96643.38;5034168;28;19941;-77
2023/04/06 08:21:14;;;;;;;;;;;;;;;8.17;46.85;96637.00;5034978;28;19938;-77
2023/04/06 08:23:40;;;;;;;;;;;;;;;8.24;46.71;96629.97;5034088;28;19951;-77
2023/04/06 08:26:06;;;;;;;;;;;;;;;8.41;47.37;96630.41;5034167;28;20054;-76
2023/04/06 08:28:34;;;;;;;;;;;;;;;8.60;46.33;96639.28;5033957;28;19947;-77
2023/04/06 08:31:03;;;;;;;;;;;;;;;8.87;45.78;96631.44;5034001;28;19939;-72
2023/04/06 08:33:29;;;;;;;;;;;;;;;9.17;45.21;96638.84;5016504;28;19941;-85
2023/04/06 08:35:55;;;;;;;;;;;;;;;9.40;44.59;96630.56;5034430;28;20447;-86
2023/04/06 08:38:21;;;;;;;;;;;;;;;9.59;44.02;96628.88;5034048;28;19939;-85
2023/04/06 08:40:49;;;;;;;;;;;;;;;9.75;43.28;96631.84;5033831;28;19995;-86
2023/04/06 08:43:16;;;;;;;;;;;;;;;9.85;42.61;96630.59;5033154;28;19944;-85
2023/04/06 08:45:43;;;;;;;;;;;;;;;9.75;42.58;96629.22;5033999;28;19961;-86
2023/04/06 08:48:09;;;;;;;;;;;;;;;9.53;42.09;96628.72;5033878;28;19962;-86
2023/04/06 08:50:35;;;;;;;;;;;;;;;9.39;43.09;96626.34;5034363;28;19933;-76
2023/04/06 08:53:02;;;;;;;;;;;;;;;9.51;43.92;96627.28;5034510;28;20325;-76
2023/04/06 08:55:28;;;;;;;;;;;;;;;9.76;44.24;96622.16;5033827;28;20289;-75
2023/04/06 08:57:55;;;;;;;;;;;;;;;9.94;43.25;96624.13;5033922;28;19945;-76
2023/04/06 09:00:21;;;;;;;;;;;;;;;10.03;43.57;96624.66;5033678;28;20418;-75
2023/04/06 09:02:48;;;;;;;;;;;;;;;10.01;43.75;96616.22;5034418;28;20434;-76
2023/04/06 09:05:14;;;;;;;;;;;;;;;10.11;42.99;96614.75;5034071;28;20392;-76
2023/04/06 09:07:40;;;;;;;;;;;;;;;10.26;43.93;96617.06;5033567;28;19952;-72
2023/04/06 09:10:07;;;;;;;;;;;;;;;10.38;42.25;96616.44;5033532;28;19945;-72
2023/04/06 09:12:33;;;;;;;;;;;;;;;10.31;41.98;96619.09;5033949;28;19951;-72
2023/04/06 09:14:59;;;;;;;;;;;;;;;10.19;40.67;96612.91;5033457;28;19951;-72
2023/04/06 09:17:28;;;;;;;;;;;;;;;9.90;40.38;96617.69;5032944;28;20199;-72
2023/04/06 09:19:55;;;;;;;;;;;;;;;9.66;41.35;96617.38;5033334;28;19956;-73
2023/04/06 09:22:21;;;;;;;;;;;;;;;9.75;42.05;96623.19;5033512;28;19947;-72
2023/04/06 09:24:51;;;;;;;;;;;;;;;9.91;40.74;96622.72;5033333;28;19942;-73
2023/04/06 09:27:17;;;;;;;;;;;;;;;10.07;42.08;96625.84;5033391;28;19957;-84
2023/04/06 09:29:44;;;;;;;;;;;;;;;10.16;41.72;96621.97;5033957;28;19944;-72
2023/04/06 09:32:10;;;;;;;;;;;;;;;10.29;42.23;96614.06;5015980;28;19943;-72
2023/04/06 09:34:37;;;;;;;;;;;;;;;10.43;41.41;96625.25;5033281;28;20314;-73
2023/04/06 09:37:14;;;;;;;;;;;;;;;10.64;39.61;96613.59;5015980;28;19959;-72
2023/04/06 09:39:40;;;;;;;;;;;;;;;10.83;39.58;96611.03;5015546;28;20326;-73
2023/04/06 09:42:06;;;;;;;;;;;;;;;10.85;38.04;96612.44;5033229;28;20043;-73
2023/04/06 09:44:31;;;;;;;;;;;;;;;10.90;39.42;96617.06;5033234;28;20037;-76
2023/04/06 09:46:57;;;;;;;;;;;;;;;10.95;39.66;96612.75;5033094;28;19955;-78
2023/04/06 09:49:24;;;;;;;;;;;;;;;11.03;37.39;96606.41;5033189;28;19937;-72
2023/04/06 09:51:55;;;;;;;;;;;;;;;11.13;37.75;96611.19;5033693;28;19945;-72
2023/04/06 09:54:22;;;;;;;;;;;;;;;11.11;36.38;96607.97;5035614;28;20305;-73
2023/04/06 09:56:57;;;;;;;;;;;;;;;10.95;36.94;96602.25;5036834;28;20298;-72
2023/04/06 09:59:22;;;;;;;;;;;;;;;11.01;35.99;96595.34;5037402;28;19957;-72
2023/04/06 10:01:51;;;;;;;;;;;;;;;11.09;36.37;96602.13;5037248;28;19946;-72
2023/04/06 10:04:32;;;;;;;;;;;;;;;11.11;36.16;96598.28;5037316;28;19939;-77
2023/04/06 10:06:59;;;;;;;;;;;;;;;11.11;34.90;96600.91;5003247;28;19983;-72
2023/04/06 10:09:27;;;;;;;;;;;;;;;11.12;36.05;96596.44;5037419;28;19951;-72
2023/04/06 10:11:54;;;;;;;;;;;;;;;11.16;35.17;96595.78;5036671;28;19946;-73
2023/04/06 10:14:20;;;;;;;;;;;;;;;11.17;33.74;96592.16;5018716;28;19973;-73
2023/04/06 10:16:48;;;;;;;;;;;;;;;11.31;35.31;96592.81;5036750;28;19949;-73
2023/04/06 10:19:18;;;;;;;;;;;;;;;11.57;34.83;96588.28;5036992;28;19949;-73
2023/04/06 10:21:47;;;;;;;;;;;;;;;11.72;34.94;96595.78;5019752;28;19946;-72
2023/04/06 10:24:13;;;;;;;;;;;;;;;11.98;35.29;96595.47;5018704;28;19957;-73
2023/04/06 10:26:39;;;;;;;;;;;;;;;12.13;32.91;96594.25;5036319;28;20344;-73
2023/04/06 10:29:06;;;;;;;;;;;;;;;12.18;32.60;96591.78;5018490;28;20399;-72
2023/04/06 10:31:32;;;;;;;;;;;;;;;12.31;33.68;96594.22;5036168;28;19949;-72
2023/04/06 10:33:58;;;;;;;;;;;;;;;12.42;30.61;96590.00;5036301;28;19949;-73
2023/04/06 10:36:28;;;;;;;;;;;;;;;12.43;31.61;96599.50;5035126;28;19963;-73
2023/04/06 10:38:55;;;;;;;;;;;;;;;12.56;30.46;96591.41;5037080;28;19947;-73
2023/04/06 10:41:21;;;;;;;;;;;;;;;12.78;31.77;96588.22;5019378;28;19943;-78
2023/04/06 10:43:54;;;;;;;;;;;;;;;13.00;30.97;96591.88;5035871;28;20031;-72
2023/04/06 10:46:25;;;;;;;;;;;;;;;13.25;31.78;96590.03;5036655;28;19962;-72
2023/04/06 10:48:51;;;;;;;;;;;;;;;13.55;31.65;96577.53;5018824;28;20337;-73
2023/04/06 10:51:18;;;;;;;;;;;;;;;13.71;29.06;96576.00;5036730;28;19942;-72
2023/04/06 10:53:48;;;;;;;;;;;;;;;13.59;30.93;96575.22;5035787;28;20424;-73
2023/04/06 10:56:17;;;;;;;;;;;;;;;13.53;31.49;96576.94;5036310;28;20299;-73
2023/04/06 10:58:45;;;;;;;;;;;;;;;13.47;28.03;96575.25;5035791;28;19951;-86
2023/04/06 11:01:11;;;;;;;;;;;;;;;13.37;28.64;96578.47;5035940;28;19944;-75
2023/04/06 11:03:47;;;;;;;;;;;;;;;13.50;30.86;96576.63;5035697;28;19944;-77
2023/04/06 11:06:19;;;;;;;;;;;;;;;13.71;29.98;96580.44;5035368;28;19966;-76
2023/04/06 11:08:45;;;;;;;;;;;;;;;13.60;27.58;96574.97;5035545;28;19941;-76
2023/04/06 11:11:15;;;;;;;;;;;;;;;13.60;26.92;96579.44;5002360;28;20299;-77
2023/04/06 11:13:42;;;;;;;;;;;;;;;13.56;29.30;96576.47;5035377;28;19971;-77
2023/04/06 11:16:12;;;;;;;;;;;;;;;13.74;28.14;96566.81;5035910;28;19950;-73
2023/04/06 11:18:38;;;;;;;;;;;;;;;13.82;26.89;96569.09;5018685;28;19945;-73
2023/04/06 11:21:03;;;;;;;;;;;;;;;13.99;28.58;96563.84;5036144;28;19978;-77
2023/04/06 11:23:29;;;;;;;;;;;;;;;14.24;30.73;96562.69;5035206;28;20292;-77
2023/04/06 11:25:55;;;;;;;;;;;;;;;14.27;27.64;96556.94;5035968;28;19964;-77
2023/04/06 11:28:21;;;;;;;;;;;;;;;14.21;28.21;96556.88;5035837;28;19937;-78
2023/04/06 11:30:48;;;;;;;;;;;;;;;14.25;28.02;96559.03;5035385;28;19946;-77
2023/04/06 11:33:20;;;;;;;;;;;;;;;14.37;28.68;96557.91;5035122;28;19949;-77
2023/04/06 11:35:46;;;;;;;;;;;;;;;14.54;29.32;96555.28;5035342;28;19950;-73
2023/04/06 11:38:12;;;;;;;;;;;;;;;14.67;26.34;96551.53;5035124;28;20034;-73
2023/04/06 11:40:38;;;;;;;;;;;;;;;14.33;26.90;96554.16;5017983;28;20408;-74
2023/04/06 11:43:04;;;;;;;;;;;;;;;14.28;26.71;96548.81;5035359;28;19943;-73
2023/04/06 11:45:39;;;;;;;;;;;;;;;14.36;26.59;96544.94;5034706;28;20395;-73
2023/04/06 11:48:05;;;;;;;;;;;;;;;14.40;26.06;96541.63;5035590;28;19940;-73
2023/04/06 11:50:34;;;;;;;;;;;;;;;14.48;22.37;96542.25;5034671;28;20451;-73
2023/04/06 11:53:01;;;;;;;;;;;;;;;14.27;23.35;96535.84;5034633;28;19945;-73
2023/04/06 11:55:27;;;;;;;;;;;;;;;13.91;23.98;96537.88;5034760;28;19942;-77
2023/04/06 11:57:53;;;;;;;;;;;;;;;13.71;26.33;96528.56;5034846;28;19989;-72
2023/04/06 12:00:20;;;;;;;;;;;;;;;13.85;28.17;96525.63;5035411;28;19983;-72
2023/04/06 12:02:47;;;;;;;;;;;;;;;13.80;23.96;96523.72;5017068;28;19968;-73
2023/04/06 12:05:13;;;;;;;;;;;;;;;13.87;26.80;96521.72;5034487;28;19947;-73
2023/04/06 12:07:39;;;;;;;;;;;;;;;14.26;25.37;96524.50;5034942;28;20059;-73
2023/04/06 12:10:05;;;;;;;;;;;;;;;14.59;26.52;96517.63;5016855;28;19946;-73
2023/04/06 12:12:31;;;;;;;;;;;;;;;14.56;26.78;96516.28;5034761;28;20329;-73
2023/04/06 12:14:57;;;;;;;;;;;;;;;14.20;24.95;96512.25;5035176;28;19946;-73
2023/04/06 12:17:23;;;;;;;;;;;;;;;14.18;27.24;96516.97;5034423;28;19946;-73
2023/04/06 12:19:49;;;;;;;;;;;;;;;14.25;25.08;96516.81;5034156;28;20007;-73
2023/04/06 12:22:15;;;;;;;;;;;;;;;14.34;24.92;96512.72;5034407;28;19950;-73
2023/04/06 12:24:41;;;;;;;;;;;;;;;14.31;25.83;96513.22;5034280;28;19952;-73
2023/04/06 12:27:06;;;;;;;;;;;;;;;14.22;26.16;96502.28;5034169;28;19954;-73
2023/04/06 12:29:32;;;;;;;;;;;;;;;14.16;26.11;96508.50;5034074;28;19944;-73
2023/04/06 12:32:01;;;;;;;;;;;;;;;14.27;27.65;96501.53;5034152;28;19944;-73
2023/04/06 12:34:27;;;;;;;;;;;;;;;14.45;24.92;96498.66;5034555;28;19960;-77
2023/04/06 12:36:52;;;;;;;;;;;;;;;14.53;26.63;96500.09;5016268;28;19964;-77
2023/04/06 12:39:18;;;;;;;;;;;;;;;14.61;23.84;96491.78;5016188;28;19950;-77
2023/04/06 12:41:44;;;;;;;;;;;;;;;14.58;26.00;96492.28;5034486;28;20038;-77
2023/04/06 12:44:11;;;;;;;;;;;;;;;14.55;27.04;96490.09;5034117;28;20421;-77
2023/04/06 12:46:36;;;;;;;;;;;;;;;14.68;25.00;96488.97;5034340;28;20440;-77
2023/04/06 12:49:02;;;;;;;;;;;;;;;14.64;26.12;96491.31;5034386;28;19947;-73